Pagina principală
METAR-TAF:

METAR-TAF

Aeroporturi :

Dumas, Texas, Statele Unite ale Americii

Latitudine: 35-51-28N, longitudine: 102-00-47W, elevație: 1129 m

Observații meteo curente

Raportul a fost făcut în urmă cu 30 de minute, la 05:15 UTC
Vânt 13 kt de la Est/Sud-est cu rafale de până la 19 kt
Temperatură 22°C
Umiditate 57%
Presiune 1014 hPa
Vizibilitate: 16.1 km
Cer senin

METAR: KDUX 190515Z AUTO 12013G19KT 10SM CLR 22/13 A2994 RMK AO2 T02190131

Ora: 00:45 (05:45 UTC)


TAF: lipsă

Observații și prognoze meteo pentru peste 4.000 de aeroporturi (rapoarte METAR și TAF).

Stațiile disponibile sunt reprezentate pe hartă prin puncte galbene și roșii.

Țineți indicatorul mouse-ului pe punctul dorit pentru a vedea denumirea stației.

Apoi, faceți clic pentru a vedea observațiile și prognozele meteorologice.

Pentru a schimba harta: Pentru mărire, faceți clic pe butoanele verzi cu cruce neagră; pentru micșorare, pe butonul verde cu o liniuță; pentru hărți învecinate, pe săgețile verzi.


METAR-TAF: